Terminal Aerodrome Forecast
Issued by NWS

Home | Current Version | Previous Version | Text Only | Print | Product List | Glossary On
Versions: 1 2 3 4 5 6 7 8 9 10 11 12 13 14 15 16 17 18 19 20 21
000
FTUS41 KBGM 301739
TAFITH
TAF
KITH 301739Z 3018/3118 11005KT P6SM SCT012 OVC040
      TEMPO 3018/3021 3SM SHRA BR OVC012
     FM302100 10005KT P6SM OVC035
     FM310600 15007KT 3SM -SHRA BR OVC015
      TEMPO 3109/3113 2SM SHRA BR OVC008=

USA.gov is the U.S. government's official web portal to all federal, state and local government web resources and services.